createdAt,value
2018-07-28T00:01:50.675Z,70.43
2018-07-28T00:05:54.204Z,71.01
2018-07-28T00:09:57.689Z,70.64
2018-07-28T00:14:01.186Z,69.69
2018-07-28T00:18:04.689Z,69.43
2018-07-28T00:22:08.128Z,69.37
2018-07-28T00:26:18.205Z,69.58
2018-07-28T00:30:21.668Z,69.11
2018-07-28T00:34:25.133Z,69.26
2018-07-28T00:38:28.618Z,70.17
2018-07-28T00:42:32.090Z,69.97
2018-07-28T00:46:35.615Z,69.88
2018-07-28T00:50:39.101Z,69.18
2018-07-28T00:54:42.569Z,70.01
2018-07-28T00:58:45.995Z,69.50
2018-07-28T01:02:49.475Z,69.19
2018-07-28T01:06:53.018Z,70.12
2018-07-28T01:10:56.465Z,69.97
2018-07-28T01:14:59.951Z,69.51
2018-07-28T01:19:03.690Z,69.31
2018-07-28T01:23:07.165Z,69.71
2018-07-28T01:27:10.598Z,70.51
2018-07-28T01:31:14.129Z,70.16
2018-07-28T01:35:17.645Z,70.56
2018-07-28T01:39:21.101Z,70.02
2018-07-28T01:43:24.545Z,70.42
2018-07-28T01:47:28.008Z,69.92
2018-07-28T01:51:31.483Z,70.06
2018-07-28T01:55:34.946Z,70.30
2018-07-28T01:59:38.588Z,71.09
2018-07-28T02:03:41.984Z,70.84
2018-07-28T02:07:45.447Z,70.33
2018-07-28T02:11:48.958Z,70.87
2018-07-28T02:15:52.401Z,70.39
2018-07-28T02:19:55.891Z,70.83
2018-07-28T02:23:59.374Z,71.09
2018-07-28T02:28:02.849Z,70.76
2018-07-28T02:32:06.382Z,70.35
2018-07-28T02:36:09.865Z,71.41
2018-07-28T02:40:13.371Z,70.82
2018-07-28T02:44:16.810Z,70.55
2018-07-28T02:48:20.298Z,70.79
2018-07-28T02:52:23.786Z,71.62
2018-07-28T02:56:27.294Z,71.09
2018-07-28T03:00:30.854Z,71.27
2018-07-28T03:04:34.363Z,71.20
2018-07-28T03:08:37.797Z,71.08
2018-07-28T03:12:41.251Z,71.25
2018-07-28T03:16:44.799Z,72.19
2018-07-28T03:20:48.273Z,72.44
2018-07-28T03:24:51.809Z,71.79
2018-07-28T03:28:55.281Z,72.25
2018-07-28T03:32:58.810Z,72.58
2018-07-28T03:37:02.362Z,72.53
2018-07-28T03:41:05.934Z,72.55
2018-07-28T03:45:10.315Z,71.90
2018-07-28T03:49:13.828Z,71.79
2018-07-28T03:53:17.338Z,71.67
2018-07-28T03:57:20.796Z,72.50
2018-07-28T04:01:24.306Z,72.60
2018-07-28T04:05:27.808Z,72.21
2018-07-28T04:09:31.278Z,71.87
2018-07-28T04:13:34.770Z,72.18
2018-07-28T04:17:55.565Z,72.74
2018-07-28T04:21:59.019Z,72.95
2018-07-28T04:26:02.537Z,72.86
2018-07-28T04:30:06.179Z,72.04
2018-07-28T04:34:09.658Z,72.01
2018-07-28T04:38:13.181Z,72.30
2018-07-28T04:42:16.670Z,73.26
2018-07-28T04:46:20.153Z,72.71
2018-07-28T04:50:23.626Z,73.28
2018-07-28T04:54:27.084Z,73.27
2018-07-28T04:58:30.541Z,73.14
2018-07-28T05:02:34.066Z,73.28
2018-07-28T05:06:37.485Z,72.61
2018-07-28T05:10:40.998Z,72.15
2018-07-28T05:14:44.491Z,71.99
2018-07-28T05:18:47.962Z,72.67
2018-07-28T05:22:51.412Z,72.26
2018-07-28T05:26:54.914Z,71.64
2018-07-28T05:30:58.510Z,71.60
2018-07-28T05:35:01.977Z,72.14
2018-07-28T05:39:10.120Z,71.43
2018-07-28T05:43:13.595Z,72.13
2018-07-28T05:47:17.190Z,72.15
2018-07-28T05:51:20.682Z,71.22
2018-07-28T05:55:24.194Z,71.70
2018-07-28T05:59:27.661Z,71.57
2018-07-28T06:03:31.219Z,71.49
2018-07-28T06:07:34.648Z,72.33
2018-07-28T06:11:38.274Z,71.75
2018-07-28T06:15:41.785Z,71.86
2018-07-28T06:19:45.231Z,69.76
2018-07-28T06:23:48.742Z,69.30
2018-07-28T06:27:52.247Z,69.05
2018-07-28T06:31:55.746Z,68.71
2018-07-28T06:35:59.214Z,68.17
2018-07-28T06:40:02.843Z,67.71
2018-07-28T06:44:06.499Z,67.66
2018-07-28T06:48:09.988Z,67.03
2018-07-28T06:52:13.522Z,66.17
2018-07-28T06:56:17.097Z,66.32
2018-07-28T07:00:20.580Z,65.38
2018-07-28T07:04:24.047Z,63.25
2018-07-28T07:08:27.552Z,62.67
2018-07-28T07:12:31.006Z,63.05
2018-07-28T07:16:34.840Z,62.34
2018-07-28T07:20:38.427Z,62.67
2018-07-28T07:24:41.927Z,60.76
2018-07-28T07:28:46.431Z,60.19
2018-07-28T07:32:49.885Z,59.17
2018-07-28T07:36:53.420Z,59.40
2018-07-28T07:40:56.898Z,58.98
2018-07-28T07:45:00.393Z,58.80
2018-07-28T07:49:03.871Z,57.31
2018-07-28T07:53:07.449Z,57.29
2018-07-28T07:57:11.226Z,56.89
2018-07-28T08:01:14.786Z,58.42
2018-07-28T08:05:18.302Z,58.07
2018-07-28T08:09:21.745Z,56.78
2018-07-28T08:13:25.236Z,56.30
2018-07-28T08:17:28.691Z,57.30
2018-07-28T08:21:32.185Z,55.44
2018-07-28T08:25:35.639Z,55.23
2018-07-28T08:29:39.142Z,55.81
2018-07-28T08:33:42.609Z,55.59
2018-07-28T08:37:46.140Z,54.97
2018-07-28T08:41:49.629Z,53.19
2018-07-28T08:45:53.053Z,53.86
2018-07-28T08:49:56.590Z,53.15
2018-07-28T08:54:00.103Z,52.52
2018-07-28T08:58:03.623Z,52.08
2018-07-28T09:02:07.179Z,51.62
2018-07-28T09:06:10.647Z,53.16
2018-07-28T09:10:14.227Z,51.38
2018-07-28T09:14:17.738Z,51.70
2018-07-28T09:18:21.227Z,53.48
2018-07-28T09:22:24.804Z,52.30
2018-07-28T09:26:28.258Z,53.04
2018-07-28T09:30:31.765Z,52.86
2018-07-28T09:34:35.226Z,52.18
2018-07-28T09:38:38.728Z,52.21
2018-07-28T09:42:42.166Z,51.53
2018-07-28T09:46:45.656Z,51.89
2018-07-28T09:50:49.187Z,52.08
2018-07-28T09:54:52.990Z,51.14
2018-07-28T09:58:56.644Z,50.19
2018-07-28T10:03:00.279Z,51.17
2018-07-28T10:07:03.855Z,50.69
2018-07-28T10:11:07.371Z,49.75
2018-07-28T10:15:10.903Z,49.13
2018-07-28T10:19:14.534Z,48.78
2018-07-28T10:23:18.207Z,48.30
2018-07-28T10:27:21.798Z,48.58
2018-07-28T10:31:25.387Z,48.11
2018-07-28T10:35:28.898Z,49.34
2018-07-28T10:39:32.409Z,49.79
2018-07-28T10:43:36.070Z,47.74
2018-07-28T10:47:39.661Z,49.63
2018-07-28T10:51:43.245Z,48.94
2018-07-28T10:55:46.731Z,46.31
2018-07-28T10:59:50.194Z,46.49
2018-07-28T11:03:53.819Z,45.08
2018-07-28T11:07:57.291Z,45.90
2018-07-28T11:12:01.089Z,44.46
2018-07-28T11:16:04.721Z,45.57
2018-07-28T11:20:09.891Z,44.62
2018-07-28T11:24:13.366Z,46.13
2018-07-28T11:28:19.499Z,45.87
2018-07-28T11:32:34.251Z,44.15
2018-07-28T11:36:48.974Z,43.33
2018-07-28T11:41:03.597Z,44.00
2018-07-28T11:45:15.798Z,42.28
2018-07-28T11:49:19.267Z,42.76
2018-07-28T11:53:22.755Z,41.89
2018-07-28T11:57:26.244Z,41.90
2018-07-28T12:01:29.694Z,42.72
2018-07-28T12:05:33.300Z,42.36
2018-07-28T12:09:36.810Z,42.31
2018-07-28T12:13:40.300Z,42.54
2018-07-28T12:17:43.842Z,40.40
2018-07-28T12:21:47.303Z,41.98
2018-07-28T12:25:50.794Z,39.09
2018-07-28T12:29:54.273Z,41.16
2018-07-28T12:33:57.726Z,40.07
2018-07-28T12:38:01.269Z,38.69
2018-07-28T12:42:04.869Z,39.11
2018-07-28T12:46:08.407Z,37.81
2018-07-28T12:50:11.873Z,37.78
2018-07-28T12:54:15.376Z,37.12
2018-07-28T12:58:18.951Z,37.69
2018-07-28T13:02:22.410Z,37.53
2018-07-28T13:06:25.878Z,38.87
2018-07-28T13:10:29.346Z,39.62
2018-07-28T13:14:32.802Z,40.25
2018-07-28T13:18:36.316Z,38.37
2018-07-28T13:22:39.783Z,39.97
2018-07-28T13:26:43.316Z,39.33
2018-07-28T13:30:46.815Z,39.67
2018-07-28T13:34:50.362Z,38.04
2018-07-28T13:38:53.853Z,38.51
2018-07-28T13:42:57.299Z,40.33
2018-07-28T13:47:00.786Z,39.91
2018-07-28T13:51:04.217Z,40.94
2018-07-28T13:55:07.752Z,40.71
2018-07-28T13:59:11.488Z,40.14
2018-07-28T14:03:14.971Z,40.46
2018-07-28T14:07:18.717Z,40.68
2018-07-28T14:11:22.212Z,41.34
2018-07-28T14:15:25.685Z,41.76
2018-07-28T14:19:29.184Z,40.56
2018-07-28T14:23:32.691Z,39.37
2018-07-28T14:27:36.586Z,40.46
2018-07-28T14:31:40.244Z,41.46
2018-07-28T14:35:43.723Z,40.62
2018-07-28T14:39:47.277Z,40.80
2018-07-28T14:43:50.957Z,41.24
2018-07-28T14:47:54.597Z,39.96
2018-07-28T14:51:58.102Z,38.41
2018-07-28T14:56:01.568Z,39.07
2018-07-28T15:00:06.047Z,39.17
2018-07-28T15:04:09.603Z,39.62
2018-07-28T15:08:13.053Z,39.91
2018-07-28T15:12:16.574Z,37.63
2018-07-28T15:16:20.038Z,38.88
2018-07-28T15:20:23.571Z,39.96
2018-07-28T15:24:27.053Z,38.38
2018-07-28T15:28:30.592Z,38.87
2018-07-28T15:32:34.135Z,39.22
2018-07-28T15:36:37.833Z,39.85
2018-07-28T15:40:41.739Z,39.36
2018-07-28T15:44:45.311Z,40.09
2018-07-28T15:48:49.132Z,41.52
2018-07-28T15:52:52.742Z,40.93
2018-07-28T15:56:56.488Z,42.77
2018-07-28T16:01:00.111Z,41.51
2018-07-28T16:05:03.732Z,42.35
2018-07-28T16:09:09.498Z,42.18
2018-07-28T16:13:13.130Z,41.64
2018-07-28T16:17:16.900Z,41.67
2018-07-28T16:21:20.478Z,41.30
2018-07-28T16:25:24.170Z,41.63
2018-07-28T16:29:29.374Z,42.72
2018-07-28T16:33:32.951Z,42.42
2018-07-28T16:37:36.993Z,42.64
2018-07-28T16:41:40.801Z,43.03
2018-07-28T16:45:44.535Z,43.38
2018-07-28T16:49:48.172Z,44.11
2018-07-28T16:53:51.882Z,44.09
2018-07-28T16:57:55.506Z,43.15
2018-07-28T17:01:59.115Z,43.51
2018-07-28T17:06:02.799Z,43.98
2018-07-28T17:10:06.645Z,44.65
2018-07-28T17:14:10.511Z,45.28
2018-07-28T17:18:14.074Z,44.22
2018-07-28T17:22:18.001Z,43.72
2018-07-28T17:26:21.590Z,44.05
2018-07-28T17:30:25.332Z,44.56
2018-07-28T17:34:28.980Z,45.40
2018-07-28T17:38:33.180Z,46.08
2018-07-28T17:42:36.984Z,45.15
2018-07-28T17:46:40.766Z,45.59
2018-07-28T17:50:44.291Z,45.84
2018-07-28T17:54:48.119Z,45.73
2018-07-28T17:58:51.723Z,46.86
2018-07-28T18:02:55.329Z,46.87
2018-07-28T18:06:58.989Z,46.96
2018-07-28T18:11:02.646Z,47.51
2018-07-28T18:15:06.386Z,47.20
2018-07-28T18:19:09.921Z,48.30
2018-07-28T18:23:13.416Z,47.24
2018-07-28T18:27:16.937Z,47.53
2018-07-28T18:31:20.509Z,47.75
2018-07-28T18:35:23.947Z,48.24
2018-07-28T18:39:27.430Z,48.67
2018-07-28T18:43:30.917Z,49.29
2018-07-28T18:47:34.387Z,49.00
2018-07-28T18:51:37.882Z,49.11
2018-07-28T18:55:41.316Z,50.13
2018-07-28T18:59:45.107Z,49.34
2018-07-28T19:03:48.952Z,50.05
2018-07-28T19:07:52.670Z,50.00
2018-07-28T19:11:56.529Z,50.76
2018-07-28T19:16:00.240Z,49.59
2018-07-28T19:20:04.171Z,50.17
2018-07-28T19:24:08.084Z,50.07
2018-07-28T19:28:17.120Z,49.88
2018-07-28T19:32:20.917Z,49.99
2018-07-28T19:36:29.921Z,51.28
2018-07-28T19:40:34.062Z,51.71
2018-07-28T19:44:38.705Z,51.44
2018-07-28T19:48:42.709Z,51.36
2018-07-28T19:52:46.777Z,51.05
2018-07-28T19:56:50.937Z,51.67
2018-07-28T20:00:55.012Z,51.46
2018-07-28T20:04:58.936Z,51.89
2018-07-28T20:09:03.194Z,51.79
2018-07-28T20:13:07.440Z,51.16
2018-07-28T20:17:11.496Z,52.47
2018-07-28T20:21:15.458Z,51.72
2018-07-28T20:25:19.336Z,51.36
2018-07-28T20:29:23.527Z,51.55
2018-07-28T20:33:28.481Z,52.28
2018-07-28T20:37:32.518Z,52.51
2018-07-28T20:41:36.573Z,52.20
2018-07-28T20:45:40.809Z,52.09
2018-07-28T20:49:44.938Z,52.40
2018-07-28T20:53:48.948Z,53.35
2018-07-28T20:57:53.057Z,53.92
2018-07-28T21:01:57.090Z,53.93
2018-07-28T21:06:01.615Z,54.64
2018-07-28T21:10:05.711Z,54.31
2018-07-28T21:14:09.742Z,54.97
2018-07-28T21:18:13.889Z,55.78
2018-07-28T21:22:18.012Z,55.70
2018-07-28T21:26:22.149Z,55.77
2018-07-28T21:30:26.604Z,55.85
2018-07-28T21:34:30.892Z,56.08
2018-07-28T21:38:35.284Z,56.05
2018-07-28T21:42:38.817Z,55.70
2018-07-28T21:46:42.289Z,55.89
2018-07-28T21:50:45.820Z,56.63
2018-07-28T21:54:49.483Z,56.43
2018-07-28T21:58:54.538Z,56.65
2018-07-28T22:02:58.018Z,57.26
2018-07-28T22:07:01.473Z,57.48
2018-07-28T22:11:04.937Z,57.65
2018-07-28T22:15:08.358Z,57.27
2018-07-28T22:19:11.795Z,57.47
2018-07-28T22:23:16.270Z,57.65
2018-07-28T22:27:19.762Z,57.72
2018-07-28T22:31:23.185Z,58.06
2018-07-28T22:35:26.679Z,57.41
2018-07-28T22:39:30.155Z,57.26
2018-07-28T22:43:33.617Z,57.77
2018-07-28T22:47:37.113Z,57.55
2018-07-28T22:51:40.647Z,57.03
2018-07-28T22:55:44.110Z,57.71
2018-07-28T22:59:47.576Z,57.87
2018-07-28T23:03:51.053Z,58.16
2018-07-28T23:07:54.575Z,58.05
2018-07-28T23:11:58.051Z,58.05
2018-07-28T23:16:01.554Z,57.75
2018-07-28T23:20:05.716Z,58.49
2018-07-28T23:24:09.194Z,58.28
2018-07-28T23:28:12.636Z,58.17
2018-07-28T23:32:16.167Z,57.21
2018-07-28T23:36:19.658Z,57.34
2018-07-28T23:40:23.123Z,56.62
2018-07-28T23:44:26.620Z,56.78
2018-07-28T23:48:30.122Z,57.47
2018-07-28T23:52:33.631Z,57.23
2018-07-28T23:56:37.132Z,57.26
